Time;durP1;ratioP1;P1;durP2;ratioP2;P2;SDS_P1;SDS_P2;PMS_P1;PMS_P2;Temp;Humidity;BMP_temperature;BMP_pressure;BME280_temperature;BME280_humidity;BME280_pressure;Samples;Min_cycle;Max_cycle;Signal;HPM_P1;HPM_P2
2023/01/14 00:00:28;;;;;;;2.53;0.43;;;10.00;69.40;9.80;96798.00;;;;5047912;28;20282;-83
2023/01/14 00:02:59;;;;;;;0.30;0.27;;;9.90;69.20;9.90;96806.00;;;;5047385;28;20251;-83
2023/01/14 00:05:29;;;;;;;1.70;0.40;;;10.00;69.40;9.90;96804.00;;;;5047050;28;20209;-83
2023/01/14 00:07:57;;;;;;;1.53;0.60;;;9.90;69.30;9.90;96805.00;;;;5045047;28;20227;-83
2023/01/14 00:10:24;;;;;;;0.50;0.23;;;9.90;69.20;9.90;96798.00;;;;5041120;28;20673;-83
2023/01/14 00:12:51;;;;;;;2.90;0.60;;;10.00;69.40;9.90;96803.00;;;;5042698;28;20197;-82
2023/01/14 00:15:19;;;;;;;1.17;0.33;;;10.00;69.30;9.90;96813.00;;;;5044817;28;20201;-82
2023/01/14 00:17:47;;;;;;;1.67;0.40;;;10.00;69.30;9.90;96814.00;;;;5046763;28;20224;-83
2023/01/14 00:20:16;;;;;;;0.40;0.40;;;10.00;69.40;9.90;96808.00;;;;5044318;28;20225;-83
2023/01/14 00:22:44;;;;;;;0.37;0.37;;;10.00;69.50;9.90;96803.00;;;;5045458;28;20247;-83
2023/01/14 00:25:11;;;;;;;1.30;0.30;;;10.00;69.60;9.90;96806.00;;;;5042299;28;20716;-83
2023/01/14 00:27:38;;;;;;;0.40;0.37;;;10.00;69.70;10.00;96808.00;;;;5046224;28;20359;-83
2023/01/14 00:30:20;;;;;;;2.03;0.17;;;10.00;69.90;10.00;96815.00;;;;5046083;28;20763;-83
2023/01/14 00:32:47;;;;;;;0.90;0.30;;;10.10;70.30;10.00;96819.00;;;;5033094;28;20201;-82
2023/01/14 00:35:16;;;;;;;0.30;0.30;;;10.10;70.00;10.00;96821.00;;;;5033730;28;20291;-83
2023/01/14 00:37:43;;;;;;;3.67;0.50;;;10.10;70.30;10.00;96830.00;;;;5034812;28;20248;-83
2023/01/14 00:40:12;;;;;;;0.33;0.30;;;10.10;70.70;10.10;96817.00;;;;5044714;28;20577;-83
2023/01/14 00:42:39;;;;;;;25.07;2.23;;;10.10;70.80;10.10;96818.00;;;;5044451;28;20213;-83
2023/01/14 00:45:08;;;;;;;2.67;0.57;;;10.10;71.10;10.10;96818.00;;;;5041470;28;20651;-83
2023/01/14 00:47:36;;;;;;;2.67;0.63;;;10.10;71.10;10.10;96815.00;;;;5044046;28;20254;-83
2023/01/14 00:50:04;;;;;;;0.73;0.40;;;10.10;71.30;10.10;96812.00;;;;5044735;28;20225;-82
2023/01/14 00:52:32;;;;;;;7.03;1.07;;;10.10;71.40;10.10;96817.00;;;;5044257;28;20304;-82
2023/01/14 00:55:06;;;;;;;0.30;0.30;;;10.10;71.50;10.10;96814.00;;;;5044849;28;20213;-83
2023/01/14 00:57:33;;;;;;;0.30;0.30;;;10.10;71.80;10.10;96814.00;;;;5042294;28;20629;-83
2023/01/14 01:00:00;;;;;;;1.87;0.40;;;10.10;71.50;10.00;96811.00;;;;5041921;28;20264;-83
2023/01/14 01:02:34;;;;;;;1.70;0.30;;;10.10;71.40;10.00;96816.00;;;;5041294;28;20205;-83
2023/01/14 01:05:01;;;;;;;1.83;0.67;;;10.10;71.80;10.00;96823.00;;;;5045299;28;20208;-83
2023/01/14 01:07:31;;;;;;;2.73;0.40;;;10.10;71.70;10.00;96817.00;;;;5041804;28;20263;-83
2023/01/14 01:09:59;;;;;;;3.03;0.40;;;10.10;71.80;10.10;96805.00;;;;5041957;28;20235;-83
2023/01/14 01:12:27;;;;;;;21.63;1.50;;;10.10;71.90;10.10;96799.00;;;;5043916;28;20200;-83
2023/01/14 01:14:54;;;;;;;50.57;3.30;;;10.10;72.00;10.10;96798.00;;;;5043815;28;20200;-83
2023/01/14 01:17:22;;;;;;;0.80;0.30;;;10.10;72.00;10.10;96804.00;;;;5044639;28;20227;-82
2023/01/14 01:19:50;;;;;;;3.33;0.83;;;10.10;72.10;10.10;96811.00;;;;5046251;28;20688;-83
2023/01/14 01:22:18;;;;;;;1.17;0.60;;;10.10;71.80;10.10;96803.00;;;;5044744;28;20200;-83
2023/01/14 01:24:46;;;;;;;8.63;1.23;;;10.10;71.70;10.10;96804.00;;;;5044461;28;20297;-82
2023/01/14 01:27:14;;;;;;;0.50;0.30;;;10.10;71.60;10.10;96809.00;;;;5044368;28;20551;-83
2023/01/14 01:29:41;;;;;;;3.13;0.57;;;10.00;71.60;10.10;96805.00;;;;5044783;28;20233;-83
2023/01/14 01:32:09;;;;;;;10.20;1.00;;;10.00;71.50;10.10;96807.00;;;;5044251;28;20232;-83
2023/01/14 01:34:36;;;;;;;3.67;0.50;;;10.00;71.50;10.10;96810.00;;;;5042188;28;20248;-82
2023/01/14 01:37:09;;;;;;;0.60;0.40;;;10.00;71.40;10.00;96805.00;;;;5046130;28;20236;-83
2023/01/14 01:39:36;;;;;;;0.70;0.67;;;10.00;71.40;10.00;96803.00;;;;5045361;28;20692;-83
2023/01/14 01:42:03;;;;;;;4.97;0.83;;;10.00;71.30;10.00;96805.00;;;;5047756;28;20573;-83
2023/01/14 01:45:23;;;;;;;35.43;2.53;;;10.00;71.10;9.90;96807.00;;;;5047413;28;20201;-83
2023/01/14 01:47:57;;;;;;;7.03;0.80;;;9.90;71.40;9.90;96817.00;;;;5012246;28;20262;-83
2023/01/14 01:50:24;;;;;;;4.00;0.40;;;9.90;71.00;9.90;96813.00;;;;5044220;28;20228;-83
2023/01/14 01:52:52;;;;;;;0.97;0.50;;;9.90;70.90;9.80;96815.00;;;;5047018;28;20256;-83
2023/01/14 01:55:21;;;;;;;1.90;0.40;;;9.80;70.80;9.80;96821.00;;;;5043842;28;20303;-83
2023/01/14 01:57:55;;;;;;;10.83;1.00;;;9.80;70.60;9.70;96809.00;;;;5034476;28;20694;-83
2023/01/14 02:00:26;;;;;;;0.60;0.30;;;9.80;70.50;9.60;96817.00;;;;5042912;28;20229;-83
2023/01/14 02:03:03;;;;;;;14.60;2.07;;;9.70;70.30;9.60;96820.00;;;;5042141;28;20208;-83
2023/01/14 02:05:31;;;;;;;2.40;0.60;;;9.70;70.40;9.50;96809.00;;;;5041780;28;20201;-83
2023/01/14 02:08:00;;;;;;;31.17;2.77;;;9.60;70.50;9.50;96813.00;;;;5044793;28;20236;-83
2023/01/14 02:10:49;;;;;;;8.87;0.77;;;9.60;70.80;9.50;96823.00;;;;5042809;28;20232;-83
2023/01/14 02:13:42;;;;;;;12.33;1.00;;;9.60;71.20;9.50;96828.00;;;;5035041;28;20209;-83
2023/01/14 02:16:21;;;;;;;0.60;0.40;;;9.50;71.20;9.40;96828.00;;;;5047627;28;20201;-82
2023/01/14 02:19:20;;;;;;;8.00;1.00;;;9.50;71.00;9.40;96835.00;;;;5044826;28;20679;-83
2023/01/14 02:22:14;;;;;;;2.37;0.70;;;9.50;70.90;9.40;96835.00;;;;5042122;28;20313;-83
2023/01/14 02:25:24;;;;;;;12.43;1.23;;;9.50;71.10;9.40;96849.00;;;;5045755;28;20645;-83
2023/01/14 02:27:55;;;;;;;1.10;0.40;;;9.40;71.40;9.40;96844.00;;;;5044331;28;20229;-83
2023/01/14 02:30:37;;;;;;;0.93;0.20;;;9.40;71.20;9.40;96848.00;;;;5050172;28;20224;-83
2023/01/14 02:33:37;;;;;;;2.20;0.80;;;9.40;71.20;9.40;96854.00;;;;5050307;28;20235;-83
2023/01/14 02:36:19;;;;;;;0.90;0.67;;;9.40;71.20;9.40;96851.00;;;;5036239;28;20615;-83
2023/01/14 02:39:02;;;;;;;20.27;1.87;;;9.40;71.20;9.40;96841.00;;;;5038404;28;20189;-83
2023/01/14 02:44:28;;;;;;;36.80;2.90;;;9.40;71.40;9.40;96831.00;;;;5047207;28;20622;-83
2023/01/14 02:47:02;;;;;;;19.33;1.80;;;9.50;71.50;9.50;96836.00;;;;5049964;28;20200;-83
2023/01/14 02:49:34;;;;;;;29.53;2.57;;;9.50;71.70;9.50;96839.00;;;;5045928;28;20259;-83
2023/01/14 02:52:05;;;;;;;1.17;0.60;;;9.50;71.60;9.50;96847.00;;;;5048770;28;20262;-83
2023/01/14 02:54:33;;;;;;;2.03;0.50;;;9.50;71.40;9.50;96832.00;;;;5046867;28;20205;-83
2023/01/14 02:57:07;;;;;;;9.80;0.80;;;9.50;71.10;9.50;96834.00;;;;5049232;28;20220;-83
2023/01/14 02:59:52;;;;;;;0.80;0.40;;;9.50;71.10;9.50;96833.00;;;;5037655;28;20224;-83
2023/01/14 03:02:43;;;;;;;1.10;0.30;;;9.50;71.00;9.50;96842.00;;;;5037083;28;20221;-83
2023/01/14 03:05:38;;;;;;;0.33;0.30;;;9.50;71.60;9.40;96836.00;;;;5047547;28;20208;-83
2023/01/14 03:08:16;;;;;;;6.40;0.80;;;9.50;70.90;9.40;96845.00;;;;5047809;28;20247;-83
2023/01/14 03:10:51;;;;;;;8.30;0.87;;;9.40;70.70;9.40;96840.00;;;;5049555;28;20251;-83
2023/01/14 03:13:31;;;;;;;2.90;0.60;;;9.40;70.80;9.40;96836.00;;;;5046429;28;20209;-83
2023/01/14 03:16:04;;;;;;;4.43;0.80;;;9.40;70.70;9.40;96827.00;;;;5045298;28;20622;-82
2023/01/14 03:18:43;;;;;;;20.13;1.27;;;9.40;70.60;9.30;96844.00;;;;5047528;28;20273;-83
2023/01/14 03:21:17;;;;;;;13.60;1.57;;;9.40;70.60;9.30;96845.00;;;;5047354;28;20228;-82
2023/01/14 03:23:52;;;;;;;36.40;2.83;;;9.40;70.60;9.30;96849.00;;;;5047404;28;20259;-83
2023/01/14 03:26:23;;;;;;;10.93;1.17;;;9.30;70.70;9.20;96840.00;;;;5045084;28;20211;-83
2023/01/14 03:28:52;;;;;;;1.60;0.40;;;9.30;70.80;9.20;96838.00;;;;5048368;28;20201;-83
2023/01/14 03:31:27;;;;;;;42.37;3.30;;;9.30;70.70;9.20;96842.00;;;;5045082;28;20776;-83
2023/01/14 03:34:01;;;;;;;2.63;0.50;;;9.30;70.80;9.30;96836.00;;;;5046071;28;20236;-82
2023/01/14 03:36:33;;;;;;;14.63;1.23;;;9.30;71.00;9.30;96839.00;;;;5045035;28;20278;-83
2023/01/14 03:39:05;;;;;;;2.27;0.53;;;9.30;71.00;9.20;96836.00;;;;5047840;28;20196;-83
2023/01/14 03:44:27;;;;;;;8.97;0.90;;;9.30;70.90;9.30;96840.00;;;;5046345;28;20212;-82
2023/01/14 03:46:56;;;;;;;4.53;0.87;;;9.30;71.00;9.30;96848.00;;;;5045303;28;20200;-83
2023/01/14 03:49:24;;;;;;;1.50;0.60;;;9.30;71.10;9.30;96846.00;;;;5043542;28;20198;-83
2023/01/14 03:52:01;;;;;;;1.70;0.50;;;9.30;71.10;9.30;96841.00;;;;5043919;28;20213;-82
2023/01/14 03:54:39;;;;;;;1.83;0.70;;;9.30;71.10;9.30;96846.00;;;;5044593;28;20236;-82
2023/01/14 03:57:14;;;;;;;4.70;0.77;;;9.30;71.10;9.40;96846.00;;;;5056238;28;20189;-83
2023/01/14 03:59:51;;;;;;;5.37;0.83;;;9.30;71.10;9.40;96851.00;;;;5052046;28;20232;-82
2023/01/14 04:02:21;;;;;;;1.53;0.40;;;9.30;71.10;9.40;96846.00;;;;5057089;28;20224;-81
2023/01/14 04:04:52;;;;;;;13.70;1.37;;;9.40;71.20;9.40;96844.00;;;;5042052;28;20201;-82
2023/01/14 04:07:20;;;;;;;0.80;0.50;;;9.40;71.30;9.50;96845.00;;;;5051118;28;20744;-82
2023/01/14 04:09:47;;;;;;;2.00;0.50;;;9.40;71.40;9.50;96842.00;;;;5053665;28;20216;-82
2023/01/14 04:12:14;;;;;;;3.60;0.77;;;9.40;71.20;9.50;96834.00;;;;5036732;28;20217;-82
2023/01/14 04:17:28;;;;;;;13.77;1.10;;;9.40;71.40;9.60;96845.00;;;;5033749;28;20276;-82
2023/01/14 04:19:57;;;;;;;10.03;0.93;;;9.50;71.50;9.60;96838.00;;;;5049691;28;20247;-82
2023/01/14 04:22:24;;;;;;;38.10;3.43;;;9.50;71.60;9.60;96835.00;;;;5050936;28;20233;-81
2023/01/14 04:24:51;;;;;;;9.40;1.17;;;9.50;71.60;9.60;96835.00;;;;5045308;28;20201;-82
2023/01/14 04:27:18;;;;;;;8.20;1.20;;;9.50;71.70;9.70;96833.00;;;;5036121;28;20255;-82
2023/01/14 04:29:46;;;;;;;9.10;0.80;;;9.50;71.70;9.70;96829.00;;;;5043654;28;20225;-81
2023/01/14 04:32:13;;;;;;;30.30;2.10;;;9.50;71.60;9.70;96826.00;;;;5054128;28;20197;-82
2023/01/14 04:34:40;;;;;;;4.40;0.63;;;9.50;71.50;9.70;96830.00;;;;5055727;28;20251;-82
2023/01/14 04:37:08;;;;;;;5.23;0.93;;;9.60;71.50;9.70;96826.00;;;;5047895;28;20225;-83
2023/01/14 04:39:36;;;;;;;13.63;1.13;;;9.60;71.40;9.70;96826.00;;;;5056408;28;20303;-82
2023/01/14 04:44:48;;;;;;;24.67;2.50;;;9.60;71.30;9.70;96829.00;;;;5036195;28;20265;-82
2023/01/14 04:47:15;;;;;;;4.30;0.83;;;9.70;71.30;9.70;96820.00;;;;5048021;28;20267;-82
2023/01/14 04:49:43;;;;;;;1.30;0.50;;;9.70;71.40;9.80;96818.00;;;;5051610;28;20250;-82
2023/01/14 04:52:11;;;;;;;1.13;0.40;;;9.70;71.40;9.80;96814.00;;;;5050551;28;20255;-82
2023/01/14 04:54:38;;;;;;;5.10;0.97;;;9.70;71.30;9.80;96817.00;;;;5051365;28;20262;-82
2023/01/14 04:57:06;;;;;;;2.33;0.63;;;9.70;71.20;9.80;96817.00;;;;5051416;28;20204;-82
2023/01/14 04:59:33;;;;;;;2.43;0.53;;;9.70;71.40;9.80;96811.00;;;;5044006;28;20759;-82
2023/01/14 05:02:00;;;;;;;1.70;0.50;;;9.70;71.30;9.80;96810.00;;;;5047232;28;20705;-83
2023/01/14 05:04:27;;;;;;;4.23;1.80;;;9.80;71.30;9.80;96812.00;;;;5045963;28;20232;-82
2023/01/14 05:06:55;;;;;;;18.63;10.87;;;9.80;71.10;9.80;96805.00;;;;5053210;28;20208;-82
2023/01/14 05:09:24;;;;;;;22.37;14.60;;;9.80;71.00;9.70;96810.00;;;;5054097;28;20260;-83
2023/01/14 05:11:51;;;;;;;14.63;6.80;;;9.80;70.90;9.70;96811.00;;;;5037323;28;20243;-82
2023/01/14 05:14:19;;;;;;;6.97;5.17;;;9.80;70.90;9.70;96822.00;;;;5040718;28;20209;-82
2023/01/14 05:16:46;;;;;;;5.83;3.00;;;9.80;70.90;9.70;96814.00;;;;5051251;28;20197;-82
2023/01/14 05:19:13;;;;;;;4.00;3.33;;;9.80;70.70;9.70;96813.00;;;;5050982;28;20680;-83
2023/01/14 05:21:40;;;;;;;19.27;3.87;;;9.80;70.60;9.70;96821.00;;;;5044641;28;20225;-83
2023/01/14 05:24:08;;;;;;;61.33;6.53;;;9.80;70.60;9.70;96828.00;;;;5034438;28;20198;-82
2023/01/14 05:26:37;;;;;;;39.00;4.23;;;9.80;70.70;9.70;96821.00;;;;5040518;28;20247;-83
2023/01/14 05:29:04;;;;;;;2.10;1.33;;;9.70;70.60;9.70;96820.00;;;;5054375;28;20196;-83
2023/01/14 05:31:31;;;;;;;16.60;2.37;;;9.70;70.50;9.60;96820.00;;;;5055010;28;20779;-82
2023/01/14 05:33:59;;;;;;;28.40;2.80;;;9.70;70.40;9.60;96812.00;;;;5047803;28;20205;-82
2023/01/14 05:36:27;;;;;;;11.63;1.10;;;9.70;70.50;9.60;96812.00;;;;5035397;28;20286;-82
2023/01/14 05:38:55;;;;;;;1.77;0.70;;;9.70;70.50;9.60;96808.00;;;;5036049;28;20233;-82
2023/01/14 05:41:22;;;;;;;31.00;2.20;;;9.70;70.30;9.50;96803.00;;;;5042757;28;20229;-82
2023/01/14 05:46:36;;;;;;;8.47;1.50;;;9.60;70.10;9.40;96806.00;;;;5055524;28;20207;-83
2023/01/14 05:49:03;;;;;;;1.30;0.70;;;9.60;70.10;9.40;96810.00;;;;5056102;28;20243;-83
2023/01/14 05:51:31;;;;;;;3.43;0.70;;;9.50;70.00;9.40;96806.00;;;;5053947;28;20228;-82
2023/01/14 05:53:58;;;;;;;3.80;0.60;;;9.50;69.90;9.30;96821.00;;;;5035669;28;20240;-83
2023/01/14 05:56:25;;;;;;;3.97;1.17;;;9.40;69.80;9.20;96815.00;;;;5035373;28;20213;-82
2023/01/14 05:58:54;;;;;;;1.93;0.60;;;9.40;69.70;9.20;96800.00;;;;5035970;28;20201;-83
2023/01/14 06:06:51;;;;;;;5.03;0.90;;;9.20;69.70;9.00;96808.00;;;;5043276;28;20200;-82
2023/01/14 06:09:20;;;;;;;9.17;1.00;;;9.20;69.60;8.90;96802.00;;;;5043380;28;20258;-82
2023/01/14 06:11:50;;;;;;;5.33;0.57;;;9.10;69.70;8.90;96812.00;;;;5048624;28;20209;-82
2023/01/14 06:14:19;;;;;;;28.73;2.30;;;9.00;69.60;8.80;96804.00;;;;5047517;28;20196;-83
2023/01/14 06:16:51;;;;;;;23.37;1.67;;;9.00;69.60;8.80;96818.00;;;;5059827;28;20189;-82
2023/01/14 06:19:18;;;;;;;28.83;2.63;;;8.90;69.70;8.70;96806.00;;;;5042193;28;20205;-82
2023/01/14 06:21:46;;;;;;;25.70;1.97;;;8.90;69.90;8.70;96802.00;;;;5043284;28;20275;-82
2023/01/14 06:24:13;;;;;;;5.80;1.40;;;8.80;70.00;8.70;96803.00;;;;5048662;28;20274;-82
2023/01/14 06:26:41;;;;;;;31.20;3.77;;;8.80;70.00;8.60;96800.00;;;;5053758;28;20197;-83
2023/01/14 06:29:12;;;;;;;49.80;4.60;;;8.80;70.20;8.60;96799.00;;;;5048264;28;20258;-83
2023/01/14 06:31:42;;;;;;;8.97;1.53;;;8.70;70.20;8.60;96798.00;;;;5053729;28;20632;-82
2023/01/14 06:34:10;;;;;;;18.47;2.10;;;8.70;70.20;8.50;96792.00;;;;5046572;28;20229;-82
2023/01/14 06:36:38;;;;;;;23.57;1.80;;;8.70;70.10;8.50;96794.00;;;;5038301;28;20202;-82
2023/01/14 06:39:06;;;;;;;10.67;1.40;;;8.60;70.00;8.50;96788.00;;;;5040419;28;20292;-82
2023/01/14 06:41:33;;;;;;;2.13;1.00;;;8.60;70.10;8.40;96795.00;;;;5041225;28;20264;-83
2023/01/14 06:44:00;;;;;;;9.07;1.30;;;8.60;70.20;8.40;96801.00;;;;5041344;28;20216;-83
2023/01/14 06:46:29;;;;;;;7.50;1.00;;;8.50;70.10;8.40;96803.00;;;;5041293;28;20202;-83
2023/01/14 06:48:58;;;;;;;3.27;1.00;;;8.50;70.20;8.30;96804.00;;;;5040197;28;20216;-83
2023/01/14 06:51:25;;;;;;;1.93;0.70;;;8.40;70.00;8.30;96798.00;;;;5039987;28;20217;-82
2023/01/14 06:53:54;;;;;;;20.17;2.17;;;8.40;69.80;8.20;96796.00;;;;5040015;28;20217;-83
2023/01/14 06:56:21;;;;;;;4.47;1.00;;;8.40;69.70;8.10;96786.00;;;;5040287;28;20240;-83
2023/01/14 06:58:49;;;;;;;2.63;0.77;;;8.30;69.70;8.10;96778.00;;;;5042558;28;20230;-84
2023/01/14 07:01:17;;;;;;;2.30;0.90;;;8.20;69.60;8.00;96779.00;;;;5047113;28;20217;-83
2023/01/14 07:03:44;;;;;;;22.17;2.03;;;8.20;69.50;8.00;96777.00;;;;5048207;28;20267;-84
2023/01/14 07:06:13;;;;;;;9.53;1.23;;;8.10;69.40;7.90;96785.00;;;;5047661;28;20676;-83
2023/01/14 07:08:40;;;;;;;20.77;1.87;;;8.10;69.50;7.90;96787.00;;;;5047638;28;20621;-84
2023/01/14 07:11:07;;;;;;;13.50;1.50;;;8.10;69.70;7.80;96782.00;;;;5047219;28;20229;-84
2023/01/14 07:13:35;;;;;;;1.13;0.73;;;8.00;69.90;7.80;96771.00;;;;5049496;28;20275;-83
2023/01/14 07:16:03;;;;;;;3.30;0.80;;;7.90;70.20;7.80;96767.00;;;;5050182;28;20205;-84
2023/01/14 07:18:30;;;;;;;5.47;0.90;;;7.90;70.50;7.80;96764.00;;;;5053479;28;20223;-84
2023/01/14 07:20:59;;;;;;;20.67;2.17;;;7.90;70.80;7.80;96766.00;;;;5049205;28;20257;-84
2023/01/14 07:23:28;;;;;;;19.60;1.87;;;7.90;70.90;7.80;96760.00;;;;5055574;28;20225;-84
2023/01/14 07:25:56;;;;;;;2.10;0.77;;;7.90;71.00;7.80;96754.00;;;;5056268;28;20560;-84
2023/01/14 07:28:24;;;;;;;5.47;1.17;;;7.90;70.90;7.80;96755.00;;;;5049978;28;20206;-84
2023/01/14 07:30:52;;;;;;;25.07;2.17;;;7.90;70.80;7.80;96751.00;;;;5053194;28;20616;-84
2023/01/14 07:33:20;;;;;;;12.93;1.17;;;7.90;70.70;7.80;96736.00;;;;5046496;28;20239;-84
2023/01/14 07:35:51;;;;;;;1.87;0.87;;;7.80;70.70;7.80;96743.00;;;;5047466;28;20235;-84
2023/01/14 07:38:19;;;;;;;8.77;1.40;;;7.90;70.80;7.80;96748.00;;;;5051817;28;20288;-84
2023/01/14 07:40:48;;;;;;;9.57;1.57;;;7.80;70.80;7.80;96748.00;;;;5053667;28;20239;-84
2023/01/14 07:43:15;;;;;;;10.33;1.23;;;7.80;71.60;7.80;96746.00;;;;5048740;28;20263;-84
2023/01/14 07:45:43;;;;;;;3.70;0.90;;;7.80;71.00;7.80;96734.00;;;;5052407;28;20204;-84
2023/01/14 07:48:10;;;;;;;1.03;0.80;;;7.80;71.20;7.80;96736.00;;;;5060081;28;20205;-84
2023/01/14 07:50:37;;;;;;;0.93;0.83;;;7.80;71.40;7.80;96742.00;;;;5044047;28;20230;-84
2023/01/14 07:53:05;;;;;;;8.43;1.00;;;7.80;71.40;7.80;96731.00;;;;5043437;28;20252;-84
2023/01/14 07:55:35;;;;;;;2.97;1.00;;;7.80;71.50;7.90;96734.00;;;;5052485;28;20555;-84
2023/01/14 07:58:03;;;;;;;16.93;2.07;;;7.90;71.80;7.90;96740.00;;;;5047835;28;20201;-84
2023/01/14 08:00:31;;;;;;;34.00;3.67;;;7.90;72.00;8.00;96731.00;;;;5059022;28;20224;-85
2023/01/14 08:02:58;;;;;;;1.17;1.00;;;7.90;72.20;8.00;96727.00;;;;5048422;28;20689;-84
2023/01/14 08:05:25;;;;;;;29.70;3.20;;;8.00;72.50;8.10;96720.00;;;;5053817;28;20332;-85
2023/01/14 08:07:53;;;;;;;6.70;1.20;;;8.00;72.60;8.20;96731.00;;;;5047143;28;20209;-84
2023/01/14 08:10:21;;;;;;;4.97;1.17;;;8.10;72.90;8.30;96733.00;;;;5047864;28;20233;-84
2023/01/14 08:12:49;;;;;;;70.17;5.03;;;8.20;73.00;8.30;96735.00;;;;5039042;28;20247;-84
2023/01/14 08:15:19;;;;;;;7.87;1.67;;;8.20;73.10;8.40;96730.00;;;;5043340;28;20258;-84
2023/01/14 08:17:46;;;;;;;3.33;1.30;;;8.30;73.20;8.50;96730.00;;;;5054463;28;20225;-84
2023/01/14 08:20:14;;;;;;;21.50;2.20;;;8.40;73.40;8.60;96727.00;;;;5058914;28;20228;-84
2023/01/14 08:22:42;;;;;;;6.50;1.77;;;8.40;73.40;8.60;96715.00;;;;5053461;28;20224;-84
2023/01/14 08:25:10;;;;;;;2.83;1.20;;;8.50;73.50;8.70;96719.00;;;;5046086;28;20263;-84
2023/01/14 08:27:37;;;;;;;2.10;1.60;;;8.60;73.50;8.70;96719.00;;;;5055042;28;20683;-85
2023/01/14 08:30:06;;;;;;;3.80;1.40;;;8.60;73.30;8.80;96715.00;;;;5054040;28;20510;-85
2023/01/14 08:32:35;;;;;;;17.73;2.37;;;8.70;73.40;8.80;96705.00;;;;5056191;28;20209;-85
2023/01/14 08:35:09;;;;;;;4.37;1.60;;;8.70;73.30;8.80;96701.00;;;;5056948;28;20201;-85
2023/01/14 08:37:55;;;;;;;65.70;5.70;;;8.80;73.20;8.90;96700.00;;;;5047854;28;20200;-84
2023/01/14 08:40:23;;;;;;;4.80;1.60;;;8.80;73.20;8.90;96695.00;;;;5042143;28;20221;-85
2023/01/14 08:43:10;;;;;;;6.60;1.80;;;8.90;73.20;9.00;96693.00;;;;5041571;28;20674;-84
2023/01/14 08:45:42;;;;;;;3.97;1.57;;;8.80;73.30;9.00;96696.00;;;;5040215;28;20640;-85
2023/01/14 08:48:24;;;;;;;2.97;1.30;;;9.00;73.20;9.10;96688.00;;;;5059004;28;20204;-85
2023/01/14 08:51:00;;;;;;;1.53;1.10;;;9.00;73.30;9.10;96684.00;;;;5058191;28;20224;-85
2023/01/14 08:53:30;;;;;;;2.17;1.37;;;9.00;73.00;9.20;96677.00;;;;5058583;28;20611;-84
2023/01/14 08:55:58;;;;;;;2.00;0.90;;;9.20;73.00;9.20;96674.00;;;;5040715;28;20205;-85
2023/01/14 08:58:28;;;;;;;2.80;0.93;;;9.20;72.90;9.30;96677.00;;;;5049564;28;20688;-84
2023/01/14 09:01:05;;;;;;;1.93;0.83;;;9.20;72.90;9.30;96676.00;;;;5037987;28;20236;-85
2023/01/14 09:06:27;;;;;;;6.53;1.40;;;9.30;73.50;9.40;96672.00;;;;5041482;28;20204;-85
2023/01/14 09:17:42;;;;;;;2.73;1.37;;;9.50;72.70;9.70;96671.00;;;;5038809;28;20280;-84
2023/01/14 09:20:22;;;;;;;2.30;1.17;;;9.60;72.60;9.70;96672.00;;;;5045380;28;20228;-85
2023/01/14 09:22:58;;;;;;;3.00;1.10;;;9.70;72.50;9.80;96670.00;;;;5050603;28;20603;-84
2023/01/14 09:25:28;;;;;;;3.80;1.03;;;9.70;72.30;9.90;96677.00;;;;5053540;28;20302;-85
2023/01/14 09:28:00;;;;;;;6.10;1.33;;;9.70;72.20;10.00;96681.00;;;;5042993;28;20201;-85
2023/01/14 09:30:38;;;;;;;4.23;1.10;;;9.80;72.20;10.10;96693.00;;;;5043135;28;20225;-84
2023/01/14 09:33:06;;;;;;;3.27;1.07;;;9.90;73.00;10.10;96697.00;;;;5046766;28;20207;-84
2023/01/14 09:35:48;;;;;;;2.13;1.03;;;10.00;72.30;10.20;96699.00;;;;5046256;28;20196;-84
2023/01/14 09:38:15;;;;;;;2.90;1.00;;;10.10;72.10;10.30;96690.00;;;;5043017;28;20271;-84
2023/01/14 09:40:49;;;;;;;1.63;1.10;;;10.20;71.90;10.40;96689.00;;;;5038508;28;20244;-85
2023/01/14 09:43:29;;;;;;;2.53;1.03;;;10.30;71.70;10.50;96692.00;;;;5045402;28;20235;-84
2023/01/14 09:46:08;;;;;;;5.30;1.07;;;10.40;71.50;10.70;96678.00;;;;5041967;28;20231;-85
2023/01/14 09:48:38;;;;;;;2.40;0.97;;;10.40;71.50;10.80;96684.00;;;;5054251;28;20228;-85
2023/01/14 09:51:36;;;;;;;1.67;1.03;;;10.60;71.90;11.00;96677.00;;;;5038273;28;20885;-84
2023/01/14 09:54:15;;;;;;;1.40;0.73;;;10.70;71.90;11.10;96669.00;;;;5053345;28;20220;-85
2023/01/14 09:56:57;;;;;;;20.23;2.27;;;10.90;71.60;11.30;96675.00;;;;5045035;28;20205;-85
2023/01/14 09:59:44;;;;;;;1.43;1.00;;;11.00;71.40;11.40;96666.00;;;;5038991;28;20204;-85
2023/01/14 10:02:33;;;;;;;2.17;1.20;;;11.10;71.10;11.50;96657.00;;;;5052617;28;20224;-84
2023/01/14 10:05:18;;;;;;;1.63;0.83;;;11.30;71.10;11.70;96655.00;;;;5045007;28;20279;-85
2023/01/14 10:08:16;;;;;;;3.10;1.03;;;11.40;70.50;11.80;96653.00;;;;5038778;28;20186;-84
2023/01/14 10:10:51;;;;;;;1.97;0.90;;;11.50;70.30;12.00;96662.00;;;;5037776;28;20251;-84
2023/01/14 10:13:38;;;;;;;12.63;1.37;;;11.70;70.50;12.10;96644.00;;;;5038802;28;20892;-84
2023/01/14 10:16:19;;;;;;;7.53;1.00;;;11.80;70.30;12.20;96645.00;;;;5042671;28;20201;-84
2023/01/14 10:19:07;;;;;;;14.00;1.60;;;11.90;70.20;12.30;96650.00;;;;5057928;28;20223;-84
2023/01/14 10:21:49;;;;;;;5.33;1.43;;;12.00;69.90;12.40;96629.00;;;;5050061;28;20221;-85
2023/01/14 10:24:25;;;;;;;2.47;0.70;;;12.10;69.90;12.50;96617.00;;;;5042213;28;20229;-85
2023/01/14 10:26:59;;;;;;;3.97;0.73;;;12.20;69.60;12.60;96617.00;;;;5054577;28;20645;-84
2023/01/14 10:29:32;;;;;;;28.93;2.90;;;12.30;69.30;12.70;96614.00;;;;5046610;28;20270;-85
2023/01/14 10:32:14;;;;;;;6.63;1.30;;;12.40;69.40;12.70;96599.00;;;;5039235;28;20205;-84
2023/01/14 10:34:53;;;;;;;4.13;1.13;;;12.40;69.00;12.80;96589.00;;;;5037685;28;20307;-85
2023/01/14 10:37:31;;;;;;;5.10;1.23;;;12.50;68.50;12.80;96589.00;;;;5038434;28;20216;-84
2023/01/14 10:40:11;;;;;;;5.73;1.00;;;12.60;68.40;12.90;96585.00;;;;5038322;28;20657;-85
2023/01/14 10:42:39;;;;;;;2.13;0.90;;;12.60;68.50;12.90;96584.00;;;;5039180;28;20209;-84
2023/01/14 10:45:15;;;;;;;4.20;1.00;;;12.70;68.00;13.00;96571.00;;;;5038614;28;20209;-85
2023/01/14 10:47:55;;;;;;;10.07;1.13;;;12.70;67.40;13.00;96568.00;;;;5061127;28;20227;-85
2023/01/14 10:50:36;;;;;;;1.33;0.60;;;12.80;67.70;13.10;96571.00;;;;5061305;28;20224;-84
2023/01/14 10:53:27;;;;;;;0.60;0.40;;;12.80;66.90;13.10;96570.00;;;;5041276;28;20205;-84
2023/01/14 10:56:04;;;;;;;1.90;0.70;;;12.90;66.30;13.20;96561.00;;;;5058517;28;20220;-85
2023/01/14 10:59:05;;;;;;;1.83;1.00;;;12.90;66.80;13.20;96558.00;;;;5049195;28;20201;-83
2023/01/14 11:01:52;;;;;;;0.67;0.40;;;13.00;65.40;13.20;96545.00;;;;5032619;28;20244;-83
2023/01/14 11:04:36;;;;;;;1.50;0.60;;;13.00;65.10;13.30;96547.00;;;;5037063;28;20251;-82
2023/01/14 11:07:23;;;;;;;0.90;0.80;;;13.10;65.10;13.30;96547.00;;;;5054235;28;20665;-82
2023/01/14 11:09:54;;;;;;;0.53;0.50;;;13.10;65.00;13.40;96538.00;;;;5041442;28;20243;-83
2023/01/14 11:12:36;;;;;;;3.00;0.70;;;13.10;65.20;13.40;96531.00;;;;5038763;28;20550;-82
2023/01/14 11:15:29;;;;;;;0.87;0.63;;;13.20;64.50;13.50;96529.00;;;;5037422;28;20213;-82
2023/01/14 11:18:23;;;;;;;0.73;0.40;;;13.20;64.90;13.60;96517.00;;;;5053611;28;20208;-83
2023/01/14 11:21:05;;;;;;;1.37;0.70;;;13.30;64.70;13.60;96515.00;;;;5042801;28;20227;-83
2023/01/14 11:23:37;;;;;;;4.40;0.73;;;13.30;65.00;13.70;96505.00;;;;5058710;28;20243;-83
2023/01/14 11:26:11;;;;;;;0.80;0.40;;;13.40;64.30;13.70;96497.00;;;;5037529;28;20182;-82
2023/01/14 11:28:54;;;;;;;0.50;0.40;;;13.40;64.00;13.70;96498.00;;;;5050890;28;20315;-83
2023/01/14 11:31:33;;;;;;;1.00;0.60;;;13.50;63.50;13.70;96486.00;;;;5045962;28;20304;-83
2023/01/14 11:34:17;;;;;;;3.10;0.70;;;13.50;62.90;13.80;96468.00;;;;5036738;28;20205;-83
2023/01/14 11:36:47;;;;;;;0.43;0.40;;;13.50;63.00;13.70;96466.00;;;;5036849;28;20221;-82
2023/01/14 11:39:25;;;;;;;0.93;0.40;;;13.50;62.60;13.70;96450.00;;;;5051958;28;20638;-82
2023/01/14 11:42:03;;;;;;;0.87;0.50;;;13.50;62.00;13.70;96441.00;;;;5049550;28;20197;-82
2023/01/14 11:44:40;;;;;;;0.87;0.30;;;13.50;62.10;13.70;96445.00;;;;5036121;28;20251;-83
2023/01/14 11:47:19;;;;;;;0.57;0.30;;;13.50;62.00;13.70;96448.00;;;;5048940;28;20262;-82
2023/01/14 11:49:49;;;;;;;1.37;0.50;;;13.60;61.60;13.80;96439.00;;;;5055077;28;20314;-83
2023/01/14 11:52:25;;;;;;;1.57;0.87;;;13.60;62.00;13.80;96429.00;;;;5045047;28;20205;-83
2023/01/14 11:54:58;;;;;;;1.13;0.73;;;13.60;61.80;13.90;96430.00;;;;5035887;28;20253;-83
2023/01/14 11:57:30;;;;;;;0.60;0.43;;;13.60;61.70;13.90;96429.00;;;;5035856;28;20197;-83